createdAt,value
2019-02-08T00:01:43.961Z,4.90
2019-02-08T00:04:13.370Z,5.00
2019-02-08T00:06:42.804Z,5.00
2019-02-08T00:09:12.196Z,5.00
2019-02-08T00:11:41.639Z,5.10
2019-02-08T00:14:11.376Z,5.10
2019-02-08T00:16:40.777Z,5.20
2019-02-08T00:19:10.238Z,5.20
2019-02-08T00:21:39.631Z,5.20
2019-02-08T00:24:09.075Z,5.10
2019-02-08T00:26:38.473Z,5.10
2019-02-08T00:29:08.108Z,5.10
2019-02-08T00:31:37.602Z,5.10
2019-02-08T00:34:07.006Z,5.10
2019-02-08T00:36:36.486Z,5.10
2019-02-08T00:39:10.725Z,5.00
2019-02-08T00:41:40.142Z,5.00
2019-02-08T00:44:09.724Z,4.90
2019-02-08T00:46:39.101Z,4.90
2019-02-08T00:49:08.525Z,5.00
2019-02-08T00:51:37.943Z,5.00
2019-02-08T00:54:07.482Z,5.10
2019-02-08T00:56:36.870Z,5.10
2019-02-08T00:59:06.750Z,5.10
2019-02-08T01:01:36.171Z,5.00
2019-02-08T01:04:06.093Z,5.00
2019-02-08T01:06:35.626Z,5.00
2019-02-08T01:09:08.480Z,5.00
2019-02-08T01:11:37.905Z,5.00
2019-02-08T01:14:07.661Z,5.00
2019-02-08T01:16:37.093Z,5.00
2019-02-08T01:19:06.564Z,5.00
2019-02-08T01:21:36.104Z,5.00
2019-02-08T01:24:05.726Z,5.10
2019-02-08T01:26:35.130Z,5.20
2019-02-08T01:29:04.768Z,5.20
2019-02-08T01:31:34.181Z,5.10
2019-02-08T01:34:03.501Z,5.10
2019-02-08T01:36:32.894Z,5.10
2019-02-08T01:39:02.294Z,5.20
2019-02-08T01:41:31.721Z,5.10
2019-02-08T01:44:01.221Z,5.10
2019-02-08T01:46:30.629Z,5.00
2019-02-08T01:49:00.096Z,5.00
2019-02-08T01:51:29.498Z,5.00
2019-02-08T01:53:59.886Z,5.10
2019-02-08T01:56:29.246Z,5.00
2019-02-08T01:58:58.638Z,5.20
2019-02-08T02:01:28.061Z,5.20
2019-02-08T02:03:57.488Z,5.20
2019-02-08T02:06:26.810Z,5.10
2019-02-08T02:08:56.177Z,5.20
2019-02-08T02:11:25.621Z,5.10
2019-02-08T02:13:55.054Z,5.20
2019-02-08T02:16:24.394Z,5.20
2019-02-08T02:18:53.815Z,5.20
2019-02-08T02:21:23.265Z,5.20
2019-02-08T02:23:56.128Z,5.10
2019-02-08T02:26:24.117Z,5.20
2019-02-08T02:28:53.488Z,5.20
2019-02-08T02:31:22.946Z,5.20
2019-02-08T02:33:52.353Z,5.20
2019-02-08T02:36:21.793Z,5.20
2019-02-08T02:38:51.212Z,5.20
2019-02-08T02:41:20.658Z,5.20
2019-02-08T02:43:50.258Z,5.20
2019-02-08T02:46:19.732Z,5.20
2019-02-08T02:48:49.148Z,5.20
2019-02-08T02:51:18.492Z,5.20
2019-02-08T02:53:47.936Z,5.20
2019-02-08T02:56:17.317Z,5.20
2019-02-08T02:58:46.755Z,5.10
2019-02-08T03:01:16.149Z,5.10
2019-02-08T03:03:45.474Z,5.10
2019-02-08T03:06:14.920Z,5.10
2019-02-08T03:08:44.358Z,5.00
2019-02-08T03:11:13.790Z,5.00
2019-02-08T03:13:43.375Z,5.00
2019-02-08T03:16:12.836Z,4.90
2019-02-08T03:18:42.168Z,4.90
2019-02-08T03:21:11.601Z,4.90
2019-02-08T03:23:41.027Z,4.90
2019-02-08T03:26:10.433Z,4.90
2019-02-08T03:28:39.894Z,5.00
2019-02-08T03:31:09.338Z,5.00
2019-02-08T03:33:38.978Z,5.00
2019-02-08T03:36:08.418Z,5.10
2019-02-08T03:38:37.885Z,5.00
2019-02-08T03:41:07.211Z,5.00
2019-02-08T03:43:36.943Z,5.00
2019-02-08T03:46:06.381Z,4.90
2019-02-08T03:48:35.800Z,4.90
2019-02-08T03:51:05.359Z,4.90
2019-02-08T03:53:34.759Z,4.90
2019-02-08T03:56:04.442Z,4.90
2019-02-08T03:58:33.781Z,4.80
2019-02-08T04:01:07.159Z,4.80
2019-02-08T04:03:36.784Z,4.80
2019-02-08T04:06:06.501Z,4.80
2019-02-08T04:08:35.977Z,4.80
2019-02-08T04:11:05.488Z,4.90
2019-02-08T04:13:34.940Z,4.90
2019-02-08T04:16:04.923Z,5.00
2019-02-08T04:18:34.336Z,5.10
2019-02-08T04:21:03.741Z,5.10
2019-02-08T04:23:33.094Z,5.10
2019-02-08T04:26:02.498Z,5.10
2019-02-08T04:28:31.964Z,5.00
2019-02-08T04:31:01.408Z,5.00
2019-02-08T04:33:30.810Z,5.00
2019-02-08T04:36:00.254Z,4.90
2019-02-08T04:38:29.634Z,4.90
2019-02-08T04:40:59.934Z,4.90
2019-02-08T04:43:29.291Z,4.80
2019-02-08T04:45:58.689Z,4.80
2019-02-08T04:48:28.097Z,4.90
2019-02-08T04:50:57.543Z,4.80
2019-02-08T04:53:27.071Z,4.80
2019-02-08T04:55:56.494Z,4.90
2019-02-08T04:58:25.914Z,5.00
2019-02-08T05:00:55.286Z,4.90
2019-02-08T05:03:24.720Z,5.00
2019-02-08T05:05:54.072Z,5.10
2019-02-08T05:08:23.509Z,5.00
2019-02-08T05:10:52.895Z,5.00
2019-02-08T05:13:22.313Z,4.90
2019-02-08T05:15:51.741Z,4.90
2019-02-08T05:18:21.143Z,4.90
2019-02-08T05:20:50.605Z,4.80
2019-02-08T05:23:19.996Z,4.80
2019-02-08T05:25:49.378Z,4.70
2019-02-08T05:28:18.746Z,4.70
2019-02-08T05:30:48.160Z,4.60
2019-02-08T05:33:17.505Z,4.60
2019-02-08T05:35:46.860Z,4.60
2019-02-08T05:38:16.309Z,4.60
2019-02-08T05:40:45.738Z,4.50
2019-02-08T05:43:15.181Z,4.50
2019-02-08T05:45:44.565Z,4.40
2019-02-08T05:48:14.089Z,4.40
2019-02-08T05:50:43.573Z,4.30
2019-02-08T05:53:12.993Z,4.40
2019-02-08T05:55:42.415Z,4.40
2019-02-08T05:58:11.887Z,4.20
2019-02-08T06:00:52.729Z,4.20
2019-02-08T06:03:22.187Z,4.10
2019-02-08T06:05:51.821Z,4.10
2019-02-08T06:08:24.095Z,4.10
2019-02-08T06:10:53.637Z,4.00
2019-02-08T06:13:23.324Z,3.80
2019-02-08T06:15:52.906Z,3.80
2019-02-08T06:18:22.333Z,3.70
2019-02-08T06:20:53.037Z,3.70
2019-02-08T06:23:22.440Z,3.70
2019-02-08T06:25:51.908Z,3.70
2019-02-08T06:28:21.286Z,3.60
2019-02-08T06:30:50.770Z,3.60
2019-02-08T06:33:20.138Z,3.60
2019-02-08T06:35:49.538Z,3.50
2019-02-08T06:38:19.014Z,3.40
2019-02-08T06:40:48.749Z,3.40
2019-02-08T06:43:18.093Z,3.30
2019-02-08T06:45:47.502Z,3.30
2019-02-08T06:48:17.038Z,3.20
2019-02-08T06:50:46.474Z,3.20
2019-02-08T06:53:15.938Z,3.20
2019-02-08T06:55:45.337Z,3.10
2019-02-08T06:58:38.519Z,3.10
2019-02-08T07:01:30.531Z,3.10
2019-02-08T07:04:17.421Z,3.00
2019-02-08T07:07:04.438Z,3.00
2019-02-08T07:09:51.096Z,3.00
2019-02-08T07:12:29.045Z,2.90
2019-02-08T07:15:15.413Z,2.90
2019-02-08T07:18:03.238Z,2.90
2019-02-08T07:20:50.193Z,2.90
2019-02-08T07:23:53.616Z,2.90
2019-02-08T07:26:44.751Z,2.90
2019-02-08T07:29:33.079Z,2.90
2019-02-08T07:32:39.713Z,2.90
2019-02-08T07:35:28.990Z,2.90
2019-02-08T07:38:12.791Z,2.90
2019-02-08T07:40:57.272Z,2.90
2019-02-08T07:43:45.873Z,2.80
2019-02-08T07:46:28.975Z,2.90
2019-02-08T07:49:15.004Z,2.90
2019-02-08T07:52:01.677Z,2.90
2019-02-08T07:55:02.655Z,3.10
2019-02-08T07:57:54.137Z,3.20
2019-02-08T08:00:52.230Z,3.10
2019-02-08T08:03:43.086Z,3.10
2019-02-08T08:06:34.618Z,3.10
2019-02-08T08:09:39.151Z,3.10
2019-02-08T08:12:27.568Z,3.20
2019-02-08T08:15:06.829Z,3.20
2019-02-08T08:18:00.750Z,3.20
2019-02-08T08:20:41.963Z,3.30
2019-02-08T08:23:20.504Z,3.30
2019-02-08T08:26:12.207Z,3.30
2019-02-08T08:29:06.443Z,3.40
2019-02-08T08:31:50.682Z,3.50
2019-02-08T08:34:46.957Z,3.60
2019-02-08T08:37:44.444Z,3.80
2019-02-08T08:41:01.843Z,4.00
2019-02-08T08:43:57.310Z,4.10
2019-02-08T08:46:57.102Z,4.30
2019-02-08T08:50:08.883Z,4.40
2019-02-08T08:53:02.033Z,4.70
2019-02-08T08:56:17.397Z,4.80
2019-02-08T08:59:01.864Z,4.80
2019-02-08T09:02:08.077Z,4.90
2019-02-08T09:05:17.293Z,5.10
2019-02-08T09:08:16.470Z,5.30
2019-02-08T09:11:41.651Z,5.50
2019-02-08T09:14:48.941Z,5.60
2019-02-08T09:17:51.013Z,5.70
2019-02-08T09:21:04.239Z,5.90
2019-02-08T09:24:15.455Z,6.10
2019-02-08T09:27:44.061Z,6.20
2019-02-08T09:31:09.237Z,6.40
2019-02-08T09:34:13.793Z,6.50
2019-02-08T09:37:25.945Z,6.60
2019-02-08T09:40:07.962Z,6.70
2019-02-08T09:43:18.419Z,6.80
2019-02-08T09:46:23.146Z,7.10
2019-02-08T09:49:29.247Z,7.10
2019-02-08T09:52:22.398Z,7.10
2019-02-08T09:55:25.010Z,7.20
2019-02-08T09:58:29.928Z,7.30
2019-02-08T10:01:38.674Z,7.20
2019-02-08T10:05:05.649Z,7.00
2019-02-08T10:08:23.639Z,7.00
2019-02-08T10:11:28.312Z,7.20
2019-02-08T10:14:40.801Z,7.30
2019-02-08T10:18:18.273Z,7.30
2019-02-08T10:21:24.309Z,7.40
2019-02-08T10:24:35.151Z,7.50
2019-02-08T10:27:40.471Z,7.60
2019-02-08T10:30:59.951Z,7.60
2019-02-08T10:34:23.603Z,7.80
2019-02-08T10:37:41.599Z,8.20
2019-02-08T10:41:02.159Z,8.10
2019-02-08T10:44:05.483Z,8.20
2019-02-08T10:47:27.788Z,8.00
2019-02-08T10:51:05.187Z,8.10
2019-02-08T10:54:20.275Z,8.20
2019-02-08T10:57:35.361Z,8.50
2019-02-08T11:00:31.194Z,8.50
2019-02-08T11:03:41.522Z,8.70
2019-02-08T11:06:56.926Z,8.60
2019-02-08T11:09:58.217Z,8.50
2019-02-08T11:13:07.255Z,8.50
2019-02-08T11:16:26.405Z,8.30
2019-02-08T11:19:19.443Z,8.30
2019-02-08T11:21:50.353Z,8.50
2019-02-08T11:24:22.349Z,8.40
2019-02-08T11:26:51.946Z,8.50
2019-02-08T11:29:21.353Z,8.40
2019-02-08T11:31:50.706Z,8.40
2019-02-08T11:34:20.066Z,8.40
2019-02-08T11:36:49.481Z,8.50
2019-02-08T11:39:19.822Z,8.50
2019-02-08T11:41:50.439Z,8.50
2019-02-08T11:44:21.377Z,8.60
2019-02-08T11:46:51.118Z,8.50
2019-02-08T11:49:20.497Z,8.50
2019-02-08T11:51:49.947Z,8.60
2019-02-08T11:54:19.589Z,8.70
2019-02-08T11:56:48.983Z,8.70
2019-02-08T11:59:18.433Z,8.70
2019-02-08T12:01:49.215Z,8.70
2019-02-08T12:04:19.184Z,8.80
2019-02-08T12:06:48.577Z,8.70
2019-02-08T12:09:18.549Z,8.70
2019-02-08T12:11:47.931Z,8.70
2019-02-08T12:14:17.325Z,8.70
2019-02-08T12:16:46.713Z,8.90
2019-02-08T12:19:17.970Z,8.90
2019-02-08T12:21:47.405Z,8.90
2019-02-08T12:24:16.791Z,8.90
2019-02-08T12:26:50.687Z,8.90
2019-02-08T12:29:20.713Z,9.00
2019-02-08T12:31:50.079Z,9.00
2019-02-08T12:34:20.574Z,9.10
2019-02-08T12:36:51.561Z,9.10
2019-02-08T12:39:21.029Z,9.20
2019-02-08T12:41:50.443Z,9.10
2019-02-08T12:44:19.834Z,9.10
2019-02-08T12:46:49.367Z,9.20
2019-02-08T12:49:18.908Z,9.20
2019-02-08T12:51:48.698Z,9.20
2019-02-08T12:54:18.077Z,9.20
2019-02-08T12:56:47.493Z,9.20
2019-02-08T12:59:16.951Z,9.20
2019-02-08T13:01:46.395Z,9.10
2019-02-08T13:04:15.875Z,9.10
2019-02-08T13:06:45.271Z,9.10
2019-02-08T13:09:14.710Z,9.10
2019-02-08T13:11:44.163Z,9.20
2019-02-08T13:14:13.638Z,9.30
2019-02-08T13:16:43.419Z,9.20
2019-02-08T13:19:12.874Z,9.20
2019-02-08T13:21:42.417Z,9.20
2019-02-08T13:24:11.875Z,9.20
2019-02-08T13:26:41.310Z,9.20
2019-02-08T13:29:10.647Z,9.20
2019-02-08T13:31:40.063Z,9.30
2019-02-08T13:34:09.481Z,9.40
2019-02-08T13:36:38.923Z,9.40
2019-02-08T13:39:09.845Z,9.40
2019-02-08T13:41:39.425Z,9.40
2019-02-08T13:44:08.880Z,9.40
2019-02-08T13:46:38.422Z,9.30
2019-02-08T13:49:07.983Z,9.40
2019-02-08T13:51:37.606Z,9.40
2019-02-08T13:54:07.301Z,9.30
2019-02-08T13:56:36.671Z,9.30
2019-02-08T13:59:06.489Z,9.40
2019-02-08T14:01:35.846Z,9.40
2019-02-08T14:04:05.627Z,9.40
2019-02-08T14:06:35.049Z,9.50
2019-02-08T14:09:07.510Z,9.60
2019-02-08T14:11:36.937Z,9.50
2019-02-08T14:14:06.324Z,9.40
2019-02-08T14:16:35.639Z,9.40
2019-02-08T14:19:05.398Z,9.40
2019-02-08T14:21:34.786Z,9.40
2019-02-08T14:24:04.537Z,9.40
2019-02-08T14:26:33.885Z,9.40
2019-02-08T14:29:03.279Z,9.50
2019-02-08T14:31:32.839Z,9.50
2019-02-08T14:34:02.251Z,9.40
2019-02-08T14:36:31.714Z,9.40
2019-02-08T14:39:01.410Z,9.40
2019-02-08T14:41:30.889Z,9.40
2019-02-08T14:44:00.488Z,9.30
2019-02-08T14:46:29.904Z,9.30
2019-02-08T14:48:59.312Z,9.40
2019-02-08T14:51:28.762Z,9.40
2019-02-08T14:53:58.117Z,9.30
2019-02-08T14:56:27.521Z,9.30
2019-02-08T14:58:56.870Z,9.30
2019-02-08T15:01:26.274Z,9.20
2019-02-08T15:03:55.642Z,9.20
2019-02-08T15:06:25.098Z,9.10
2019-02-08T15:08:54.909Z,9.20
2019-02-08T15:11:27.360Z,9.20
2019-02-08T15:13:57.460Z,9.30
2019-02-08T15:16:28.244Z,9.20
2019-02-08T15:19:04.901Z,9.20
2019-02-08T15:22:11.287Z,9.20
2019-02-08T15:28:44.621Z,9.20
2019-02-08T15:31:31.568Z,9.00
2019-02-08T15:34:06.297Z,9.00
2019-02-08T15:36:49.253Z,9.20
2019-02-08T15:39:21.269Z,9.20
2019-02-08T15:41:58.801Z,9.30
2019-02-08T15:44:28.726Z,9.30
2019-02-08T15:47:01.360Z,9.30
2019-02-08T15:49:32.884Z,9.20
2019-02-08T15:52:02.980Z,9.20
2019-02-08T15:54:33.432Z,9.10
2019-02-08T15:57:06.764Z,9.10
2019-02-08T15:59:39.476Z,9.00
2019-02-08T16:02:11.789Z,8.90
2019-02-08T16:04:49.644Z,8.90
2019-02-08T16:07:25.634Z,8.80
2019-02-08T16:09:57.847Z,8.80
2019-02-08T16:12:29.685Z,8.70
2019-02-08T16:15:02.608Z,8.60
2019-02-08T16:17:35.946Z,8.60
2019-02-08T16:20:12.932Z,8.50
2019-02-08T16:22:44.401Z,8.40
2019-02-08T16:25:21.297Z,8.40
2019-02-08T16:27:51.488Z,8.30
2019-02-08T16:30:23.979Z,8.20
2019-02-08T16:32:55.683Z,8.00
2019-02-08T16:35:27.614Z,7.90
2019-02-08T16:38:00.978Z,7.80
2019-02-08T16:40:32.650Z,7.70
2019-02-08T16:43:02.925Z,7.50
2019-02-08T16:45:46.869Z,7.60
2019-02-08T16:49:37.673Z,7.40
2019-02-08T16:51:07.683Z,7.40
2019-02-08T16:53:42.489Z,7.30
2019-02-08T16:56:18.111Z,7.10
2019-02-08T16:59:11.376Z,7.00
2019-02-08T17:01:38.923Z,7.10
2019-02-08T17:04:07.359Z,7.00
2019-02-08T17:07:01.245Z,7.10
2019-02-08T17:09:31.134Z,6.90
2019-02-08T17:12:26.484Z,6.70
2019-02-08T17:15:07.219Z,6.60
2019-02-08T17:17:37.489Z,6.50
2019-02-08T17:20:17.928Z,6.40
2019-02-08T17:22:48.790Z,6.50
2019-02-08T17:25:20.250Z,6.60
2019-02-08T17:27:55.155Z,6.60
2019-02-08T17:30:22.615Z,6.50
2019-02-08T17:32:53.762Z,6.50
2019-02-08T17:35:24.433Z,6.40
2019-02-08T17:37:54.364Z,6.30
2019-02-08T17:40:26.317Z,6.20
2019-02-08T17:42:56.154Z,6.10
2019-02-08T17:45:27.172Z,6.10
2019-02-08T17:48:00.281Z,6.00
2019-02-08T17:50:39.070Z,6.00
2019-02-08T17:53:10.528Z,6.00
2019-02-08T17:55:44.482Z,6.00
2019-02-08T17:58:18.565Z,6.00
2019-02-08T18:00:52.460Z,6.00
2019-02-08T18:03:31.734Z,5.90
2019-02-08T18:06:04.412Z,6.00
2019-02-08T18:08:38.299Z,6.00
2019-02-08T18:11:07.790Z,5.90
2019-02-08T18:13:45.371Z,5.80
2019-02-08T18:16:27.553Z,5.80
2019-02-08T18:18:57.866Z,5.70
2019-02-08T18:21:30.082Z,5.60
2019-02-08T18:23:59.640Z,5.60
2019-02-08T18:26:37.682Z,5.60
2019-02-08T18:29:10.845Z,5.60
2019-02-08T18:31:48.575Z,5.40
2019-02-08T18:34:25.575Z,5.40
2019-02-08T18:37:01.993Z,5.30
2019-02-08T18:39:43.295Z,5.30
2019-02-08T18:42:39.824Z,5.20
2019-02-08T18:45:16.775Z,5.10
2019-02-08T18:47:51.794Z,5.10
2019-02-08T18:50:36.234Z,5.00
2019-02-08T18:53:12.946Z,4.90
2019-02-08T18:55:53.349Z,5.00
2019-02-08T18:58:25.481Z,4.90
2019-02-08T19:01:13.701Z,4.90
2019-02-08T19:04:02.454Z,4.80
2019-02-08T19:06:47.304Z,4.80
2019-02-08T19:09:14.848Z,4.70
2019-02-08T19:11:49.579Z,4.70
2019-02-08T19:14:48.506Z,4.70
2019-02-08T19:17:35.356Z,4.60
2019-02-08T19:20:18.007Z,4.50
2019-02-08T19:22:51.869Z,4.50
2019-02-08T19:25:42.127Z,4.40
2019-02-08T19:28:05.726Z,4.40
2019-02-08T19:30:37.513Z,4.40
2019-02-08T19:33:12.518Z,4.40
2019-02-08T19:35:41.857Z,4.30
2019-02-08T19:38:12.137Z,4.40
2019-02-08T19:40:59.757Z,4.50
2019-02-08T19:43:27.524Z,4.40
2019-02-08T19:45:57.866Z,4.30
2019-02-08T19:48:29.400Z,4.40
2019-02-08T19:51:02.903Z,4.30
2019-02-08T19:53:35.124Z,4.30
2019-02-08T19:56:08.848Z,4.20
2019-02-08T19:58:44.575Z,4.40
2019-02-08T20:01:21.712Z,4.50
2019-02-08T20:03:50.772Z,4.50
2019-02-08T20:06:22.846Z,4.50
2019-02-08T20:08:56.838Z,4.40
2019-02-08T20:11:26.967Z,4.30
2019-02-08T20:14:08.477Z,4.40
2019-02-08T20:17:00.136Z,4.50
2019-02-08T20:19:31.885Z,4.50
2019-02-08T20:22:06.800Z,4.50
2019-02-08T20:24:46.163Z,4.40
2019-02-08T20:27:24.244Z,4.40
2019-02-08T20:29:51.787Z,4.40
2019-02-08T20:32:24.025Z,4.40
2019-02-08T20:35:02.430Z,4.40
2019-02-08T20:37:34.297Z,4.30
2019-02-08T20:40:09.748Z,4.20
2019-02-08T20:42:59.021Z,4.20
2019-02-08T20:57:20.868Z,4.30
2019-02-08T20:59:48.182Z,4.40
2019-02-08T21:02:22.150Z,4.40
2019-02-08T21:04:57.054Z,4.40
2019-02-08T21:07:31.568Z,4.50
2019-02-08T21:10:09.278Z,4.40
2019-02-08T21:12:54.454Z,4.40
2019-02-08T21:15:24.272Z,4.40
2019-02-08T21:18:01.707Z,4.40
2019-02-08T21:20:47.919Z,4.40
2019-02-08T21:23:23.095Z,4.40
2019-02-08T21:26:02.219Z,4.40
2019-02-08T21:28:33.981Z,4.40
2019-02-08T21:31:06.618Z,4.40
2019-02-08T21:33:36.838Z,4.40
2019-02-08T21:36:12.510Z,4.40
2019-02-08T21:41:28.923Z,4.40
2019-02-08T21:44:02.818Z,4.40
2019-02-08T21:46:36.587Z,4.40
2019-02-08T21:49:29.717Z,4.30
2019-02-08T21:51:53.050Z,4.20
2019-02-08T21:54:26.328Z,4.20
2019-02-08T21:57:02.154Z,4.10
2019-02-08T21:59:38.090Z,4.10
2019-02-08T22:02:19.069Z,4.10
2019-02-08T22:04:50.122Z,3.90
2019-02-08T22:07:31.380Z,3.90
2019-02-08T22:09:54.560Z,3.90
2019-02-08T22:12:28.151Z,3.80
2019-02-08T22:15:09.976Z,3.70
2019-02-08T22:17:37.486Z,3.70
2019-02-08T22:20:09.210Z,3.60
2019-02-08T22:22:43.946Z,3.50
2019-02-08T22:25:15.916Z,3.40
2019-02-08T22:27:46.419Z,3.40
2019-02-08T22:30:34.730Z,3.40
2019-02-08T22:33:12.310Z,3.40
2019-02-08T22:35:50.054Z,3.20
2019-02-08T22:38:22.441Z,3.20
2019-02-08T22:41:00.280Z,3.10
2019-02-08T22:43:27.054Z,3.00
2019-02-08T22:46:04.742Z,3.00
2019-02-08T22:48:37.364Z,3.20
2019-02-08T22:51:13.802Z,3.40
2019-02-08T22:53:49.366Z,3.50
2019-02-08T22:56:24.020Z,3.60
2019-02-08T22:58:53.305Z,3.60
2019-02-08T23:01:41.411Z,3.60
2019-02-08T23:04:25.105Z,3.40
2019-02-08T23:06:58.637Z,3.20
2019-02-08T23:09:28.740Z,3.20
2019-02-08T23:12:00.613Z,3.10
2019-02-08T23:14:32.718Z,3.00
2019-02-08T23:17:35.936Z,3.00
2019-02-08T23:19:48.364Z,3.00
2019-02-08T23:22:21.200Z,2.80
2019-02-08T23:24:55.254Z,2.70
2019-02-08T23:27:26.956Z,2.70
2019-02-08T23:30:02.166Z,2.70
2019-02-08T23:32:33.460Z,2.60
2019-02-08T23:35:05.098Z,2.50
2019-02-08T23:37:36.621Z,2.50
2019-02-08T23:40:09.410Z,2.60
2019-02-08T23:42:51.406Z,2.60
2019-02-08T23:45:24.651Z,2.60
2019-02-08T23:47:56.534Z,2.70
2019-02-08T23:50:28.202Z,2.60
2019-02-08T23:53:00.181Z,2.50
2019-02-08T23:55:32.803Z,2.60
2019-02-08T23:58:03.215Z,2.60
